Time;durP1;ratioP1;P1;durP2;ratioP2;P2;SDS_P1;SDS_P2;PMS_P1;PMS_P2;Temp;Humidity;BMP_temperature;BMP_pressure;BME280_temperature;BME280_humidity;BME280_pressure;Samples;Min_cycle;Max_cycle;Signal;HPM_P1;HPM_P2
2024/01/28 00:00:49;;;;;;;1.70;1.60;;;7.50;74.30;;;;;;6335144;22;20196;-88
2024/01/28 00:03:20;;;;;;;1.30;1.20;;;7.50;74.40;;;;;;6332380;22;20169;-88
2024/01/28 00:05:51;;;;;;;2.03;1.57;;;7.40;74.50;;;;;;6334177;22;20338;-88
2024/01/28 00:08:20;;;;;;;2.23;1.83;;;7.50;74.60;;;;;;6335349;22;20198;-88
2024/01/28 00:10:49;;;;;;;1.33;1.30;;;7.50;74.50;;;;;;6334988;22;20165;-89
2024/01/28 00:13:18;;;;;;;1.27;1.17;;;7.50;74.40;;;;;;6333206;22;20179;-88
2024/01/28 00:15:49;;;;;;;0.67;0.67;;;7.60;75.30;;;;;;6332576;22;20174;-87
2024/01/28 00:18:18;;;;;;;3.40;1.70;;;7.60;74.20;;;;;;6336702;22;20611;-86
2024/01/28 00:20:47;;;;;;;2.60;2.20;;;7.60;74.10;;;;;;6333478;22;20647;-86
2024/01/28 00:23:16;;;;;;;1.27;1.20;;;7.60;74.30;;;;;;6330879;22;20255;-86
2024/01/28 00:25:44;;;;;;;1.47;1.37;;;7.60;74.20;;;;;;6332940;22;20197;-86
2024/01/28 00:28:13;;;;;;;5.10;2.83;;;7.70;74.30;;;;;;6330919;22;20703;-86
2024/01/28 00:30:41;;;;;;;1.90;1.70;;;7.70;74.10;;;;;;6332653;22;20169;-87
2024/01/28 00:33:11;;;;;;;1.70;1.60;;;7.70;74.10;;;;;;6332072;22;20179;-89
2024/01/28 00:35:40;;;;;;;1.63;1.03;;;7.70;74.10;;;;;;6332198;22;20690;-88
2024/01/28 00:38:09;;;;;;;0.90;0.90;;;7.70;74.10;;;;;;6333697;22;20178;-88
2024/01/28 00:40:38;;;;;;;2.00;1.57;;;7.60;73.90;;;;;;6331957;22;20222;-87
2024/01/28 00:43:06;;;;;;;2.43;1.33;;;7.70;74.00;;;;;;6333302;22;20515;-86
2024/01/28 00:48:19;;;;;;;1.10;1.00;;;7.70;74.00;;;;;;6332347;22;20168;-87
2024/01/28 00:56:26;;;;;;;2.10;1.67;;;7.60;73.90;;;;;;6331466;22;20200;-86
2024/01/28 00:58:54;;;;;;;0.93;0.87;;;7.60;73.90;;;;;;6333423;22;20161;-86
2024/01/28 01:01:23;;;;;;;2.23;1.33;;;7.60;74.00;;;;;;6332260;22;20237;-87
2024/01/28 01:03:53;;;;;;;0.67;0.67;;;7.60;74.00;;;;;;6330232;22;20248;-86
2024/01/28 01:06:22;;;;;;;0.80;0.80;;;7.60;74.00;;;;;;6332900;22;20174;-88
2024/01/28 01:08:51;;;;;;;1.23;1.17;;;7.50;74.00;;;;;;6335920;22;20200;-88
2024/01/28 01:11:19;;;;;;;1.43;1.33;;;7.50;74.10;;;;;;6333979;22;20171;-87
2024/01/28 01:13:48;;;;;;;2.30;1.30;;;7.40;74.00;;;;;;6332033;22;20294;-91
2024/01/28 01:16:17;;;;;;;1.67;1.57;;;7.40;74.00;;;;;;6334719;22;20173;-89
2024/01/28 01:18:45;;;;;;;0.90;0.90;;;7.40;74.00;;;;;;6338350;22;20169;-89
2024/01/28 01:21:16;;;;;;;0.90;0.90;;;7.40;74.00;;;;;;6333659;22;20174;-88
2024/01/28 01:23:45;;;;;;;1.37;1.27;;;7.40;74.10;;;;;;6331704;22;20444;-88
2024/01/28 01:26:13;;;;;;;1.10;1.10;;;7.40;74.00;;;;;;6333569;22;20168;-88
2024/01/28 01:28:42;;;;;;;0.93;0.90;;;7.40;74.10;;;;;;6336258;22;20235;-89
2024/01/28 01:31:10;;;;;;;0.60;0.60;;;7.40;73.90;;;;;;6331934;22;20168;-89
2024/01/28 01:33:39;;;;;;;3.90;1.93;;;7.50;73.80;;;;;;6331073;22;20258;-88
2024/01/28 01:36:07;;;;;;;1.90;1.80;;;7.50;73.70;;;;;;6334497;22;20163;-89
2024/01/28 01:38:37;;;;;;;2.07;1.97;;;7.50;73.60;;;;;;6341660;22;20180;-89
2024/01/28 01:41:06;;;;;;;1.07;1.07;;;7.50;73.40;;;;;;6343724;22;20239;-90
2024/01/28 01:43:35;;;;;;;1.27;1.10;;;7.50;73.50;;;;;;6337964;22;20164;-89
2024/01/28 01:46:05;;;;;;;2.23;2.03;;;7.50;73.60;;;;;;6332701;22;20171;-89
2024/01/28 01:48:34;;;;;;;4.80;1.73;;;7.40;73.30;;;;;;6331056;22;20525;-88
2024/01/28 01:51:06;;;;;;;3.60;2.10;;;7.40;73.30;;;;;;6333590;22;20164;-89
2024/01/28 01:53:35;;;;;;;2.23;1.63;;;7.40;73.10;;;;;;6329884;22;20167;-90
2024/01/28 01:56:07;;;;;;;4.70;1.70;;;7.30;73.30;;;;;;6333538;22;20272;-89
2024/01/28 01:58:36;;;;;;;2.00;1.43;;;7.40;73.60;;;;;;6333092;22;20179;-89
2024/01/28 02:01:06;;;;;;;2.63;2.17;;;7.40;73.60;;;;;;6332528;22;20274;-89
2024/01/28 02:03:34;;;;;;;1.40;1.30;;;7.30;73.60;;;;;;6329704;22;20737;-89
2024/01/28 02:06:03;;;;;;;3.00;2.23;;;7.30;74.00;;;;;;6331833;22;20179;-89
2024/01/28 02:08:32;;;;;;;1.57;1.47;;;7.30;74.10;;;;;;6334503;22;20266;-89
2024/01/28 02:11:05;;;;;;;1.57;1.20;;;7.30;74.00;;;;;;6333090;22;20196;-89
2024/01/28 02:13:35;;;;;;;1.33;1.23;;;7.20;73.90;;;;;;6331771;22;20206;-88
2024/01/28 02:16:03;;;;;;;2.50;2.00;;;7.20;74.20;;;;;;6334145;22;20503;-89
2024/01/28 02:18:32;;;;;;;0.50;0.50;;;7.20;74.10;;;;;;6334998;22;20167;-89
2024/01/28 02:21:01;;;;;;;0.97;0.93;;;7.20;74.20;;;;;;6332603;22;20174;-89
2024/01/28 02:23:31;;;;;;;1.97;1.70;;;7.10;74.30;;;;;;6331671;22;20172;-89
2024/01/28 02:25:59;;;;;;;2.70;1.43;;;7.10;74.50;;;;;;6332146;22;20250;-89
2024/01/28 02:28:28;;;;;;;3.20;2.40;;;7.10;74.70;;;;;;6333953;22;20174;-89
2024/01/28 02:30:57;;;;;;;3.10;1.93;;;7.10;74.70;;;;;;6333773;22;20195;-86
2024/01/28 02:33:25;;;;;;;1.10;1.00;;;7.10;74.70;;;;;;6329884;22;20256;-91
2024/01/28 02:35:54;;;;;;;2.00;1.80;;;7.10;74.80;;;;;;6332835;22;20168;-91
2024/01/28 02:38:23;;;;;;;0.80;0.80;;;7.10;74.80;;;;;;6337249;22;20275;-90
2024/01/28 02:40:55;;;;;;;1.43;1.33;;;7.00;74.90;;;;;;6332660;22;20170;-91
2024/01/28 02:43:24;;;;;;;1.10;1.10;;;7.00;75.00;;;;;;6331835;22;20191;-91
2024/01/28 02:45:52;;;;;;;1.37;1.27;;;7.00;75.10;;;;;;6334338;22;20228;-88
2024/01/28 02:48:21;;;;;;;2.50;2.30;;;7.00;75.10;;;;;;6333702;22;20236;-89
2024/01/28 02:50:50;;;;;;;0.90;0.90;;;7.00;75.10;;;;;;6331691;22;20233;-88
2024/01/28 02:53:19;;;;;;;0.70;0.70;;;7.00;75.20;;;;;;6329860;22;20262;-88
2024/01/28 02:55:49;;;;;;;2.10;1.87;;;7.00;75.20;;;;;;6331638;22;20905;-88
2024/01/28 02:58:19;;;;;;;0.80;0.80;;;6.90;75.50;;;;;;6334452;22;20164;-88
2024/01/28 03:00:48;;;;;;;0.73;0.73;;;6.90;75.50;;;;;;6333853;22;20629;-89
2024/01/28 03:03:16;;;;;;;1.77;1.67;;;6.90;75.50;;;;;;6330321;22;20174;-88
2024/01/28 03:05:45;;;;;;;2.00;1.90;;;6.90;75.60;;;;;;6334673;22;20246;-88
2024/01/28 03:08:13;;;;;;;1.67;1.40;;;6.90;75.60;;;;;;6333608;22;20190;-88
2024/01/28 03:10:42;;;;;;;1.27;1.17;;;6.90;75.60;;;;;;6334391;22;20194;-88
2024/01/28 03:13:10;;;;;;;1.70;1.60;;;6.90;75.50;;;;;;6332883;22;20168;-88
2024/01/28 03:15:41;;;;;;;0.67;0.67;;;6.90;75.50;;;;;;6333748;22;20607;-87
2024/01/28 03:18:12;;;;;;;0.90;0.90;;;6.90;75.60;;;;;;6333614;22;20487;-88
2024/01/28 03:20:41;;;;;;;1.17;1.07;;;6.90;75.60;;;;;;6334156;22;20627;-87
2024/01/28 03:23:09;;;;;;;1.33;1.03;;;6.90;75.70;;;;;;6334668;22;20213;-86
2024/01/28 03:25:38;;;;;;;1.63;1.37;;;6.90;75.70;;;;;;6331579;22;20167;-87
2024/01/28 03:28:07;;;;;;;1.27;1.17;;;6.80;75.70;;;;;;6335385;22;20175;-87
2024/01/28 03:30:36;;;;;;;1.57;1.47;;;6.80;75.70;;;;;;6334423;22;20202;-86
2024/01/28 03:33:06;;;;;;;0.97;0.97;;;6.80;75.80;;;;;;6334261;22;20515;-86
2024/01/28 03:35:35;;;;;;;3.73;1.77;;;6.80;75.80;;;;;;6328819;22;20163;-86
2024/01/28 03:38:04;;;;;;;1.47;1.37;;;6.80;75.80;;;;;;6334620;22;20254;-90
2024/01/28 03:40:33;;;;;;;1.23;1.13;;;6.80;75.90;;;;;;6335470;22;20629;-89
2024/01/28 03:43:01;;;;;;;2.70;2.23;;;6.80;76.10;;;;;;6337493;22;20177;-86
2024/01/28 03:45:30;;;;;;;2.13;1.93;;;6.70;76.10;;;;;;6330607;22;20225;-87
2024/01/28 03:47:59;;;;;;;2.33;2.10;;;6.70;76.10;;;;;;6332610;22;20198;-89
2024/01/28 03:50:29;;;;;;;1.20;1.17;;;6.70;76.30;;;;;;6330055;22;20635;-91
2024/01/28 03:52:57;;;;;;;1.73;1.60;;;6.70;76.30;;;;;;6334804;22;20553;-91
2024/01/28 03:55:26;;;;;;;2.70;0.83;;;6.60;76.30;;;;;;6332242;22;20166;-87
2024/01/28 03:57:54;;;;;;;1.83;1.73;;;6.60;76.30;;;;;;6337233;22;20727;-88
2024/01/28 04:00:28;;;;;;;1.20;1.10;;;6.60;76.40;;;;;;6333464;22;20393;-88
2024/01/28 04:02:57;;;;;;;1.77;1.67;;;6.60;76.70;;;;;;6333243;22;20278;-88
2024/01/28 04:05:26;;;;;;;1.50;1.23;;;6.60;76.80;;;;;;6331199;22;20223;-88
2024/01/28 04:07:56;;;;;;;0.87;0.87;;;6.50;76.70;;;;;;6335048;22;20633;-88
2024/01/28 04:10:25;;;;;;;2.40;1.67;;;6.50;76.70;;;;;;6333009;22;20195;-87
2024/01/28 04:12:53;;;;;;;1.73;1.07;;;6.50;76.60;;;;;;6332130;22;20167;-88
2024/01/28 04:15:22;;;;;;;2.03;1.93;;;6.50;76.70;;;;;;6330354;22;20171;-88
2024/01/28 04:17:51;;;;;;;3.17;2.87;;;6.50;76.80;;;;;;6339018;22;20178;-87
2024/01/28 04:20:20;;;;;;;7.17;1.93;;;6.40;76.70;;;;;;6340256;22;20201;-87
2024/01/28 04:22:48;;;;;;;2.05;1.90;;;6.40;76.70;;;;;;6343647;22;20409;-87
2024/01/28 04:25:18;;;;;;;1.40;1.30;;;6.30;76.80;;;;;;6330198;22;20170;-86
2024/01/28 04:27:47;;;;;;;2.33;1.60;;;6.30;77.30;;;;;;6336045;22;20243;-88
2024/01/28 04:30:15;;;;;;;6.07;4.80;;;6.20;77.00;;;;;;6333994;22;20174;-87
2024/01/28 04:32:45;;;;;;;5.70;2.30;;;6.20;77.00;;;;;;6334732;22;20190;-87
2024/01/28 04:35:14;;;;;;;3.27;2.50;;;6.20;77.00;;;;;;6328359;22;20224;-87
2024/01/28 04:37:43;;;;;;;1.67;1.57;;;6.20;76.90;;;;;;6333949;22;20694;-87
2024/01/28 04:40:13;;;;;;;2.40;1.47;;;6.20;77.00;;;;;;6332258;22;20165;-87
2024/01/28 04:42:43;;;;;;;1.83;1.60;;;6.10;77.10;;;;;;6335242;22;20169;-87
2024/01/28 04:45:12;;;;;;;3.33;1.83;;;6.10;77.30;;;;;;6331130;22;20175;-87
2024/01/28 04:47:40;;;;;;;2.77;2.57;;;6.10;77.40;;;;;;6334670;22;20638;-86
2024/01/28 04:50:09;;;;;;;2.50;2.03;;;6.10;77.30;;;;;;6330281;22;20176;-86
2024/01/28 04:52:38;;;;;;;5.33;1.93;;;6.00;77.20;;;;;;6333443;22;20230;-85
2024/01/28 04:55:07;;;;;;;2.87;2.67;;;6.00;77.30;;;;;;6328244;22;20169;-85
2024/01/28 04:57:36;;;;;;;3.70;2.47;;;6.00;77.30;;;;;;6332740;22;20168;-84
2024/01/28 05:00:10;;;;;;;0.67;0.67;;;6.00;77.40;;;;;;6332903;22;20699;-85
2024/01/28 05:02:39;;;;;;;1.67;1.50;;;6.00;77.40;;;;;;6333761;22;20197;-85
2024/01/28 05:05:08;;;;;;;6.73;3.20;;;6.00;77.50;;;;;;6326335;22;20177;-84
2024/01/28 05:07:36;;;;;;;1.33;1.23;;;6.00;77.50;;;;;;6330658;22;20636;-84
2024/01/28 05:10:06;;;;;;;0.60;0.60;;;6.00;77.50;;;;;;6330416;22;20175;-84
2024/01/28 05:12:34;;;;;;;1.20;1.10;;;5.90;77.70;;;;;;6333906;22;20206;-83
2024/01/28 05:15:03;;;;;;;1.93;1.57;;;5.90;77.60;;;;;;6327954;22;20256;-84
2024/01/28 05:17:33;;;;;;;3.27;1.93;;;6.00;77.70;;;;;;6335160;22;20252;-83
2024/01/28 05:20:02;;;;;;;2.13;1.60;;;5.90;77.50;;;;;;6332496;22;20239;-83
2024/01/28 05:22:31;;;;;;;4.20;2.07;;;6.00;77.70;;;;;;6333214;22;20174;-86
2024/01/28 05:25:02;;;;;;;1.70;1.60;;;6.00;78.00;;;;;;6329186;22;20165;-86
2024/01/28 05:27:31;;;;;;;1.87;1.77;;;6.00;77.90;;;;;;6333464;22;20165;-86
2024/01/28 05:30:00;;;;;;;1.37;1.10;;;6.00;78.00;;;;;;6330688;22;20177;-86
2024/01/28 05:32:28;;;;;;;1.63;1.50;;;6.00;78.00;;;;;;6332755;22;20492;-86
2024/01/28 05:35:01;;;;;;;3.07;2.10;;;6.00;78.00;;;;;;6329360;22;20168;-87
2024/01/28 05:37:30;;;;;;;3.37;2.90;;;6.00;77.80;;;;;;6337358;22;20165;-86
2024/01/28 05:39:59;;;;;;;0.80;0.80;;;6.00;77.80;;;;;;6331601;22;20621;-86
2024/01/28 05:42:27;;;;;;;2.97;2.20;;;6.10;78.00;;;;;;6332755;22;20169;-85
2024/01/28 05:44:56;;;;;;;5.80;1.87;;;6.10;77.90;;;;;;6327564;22;20247;-84
2024/01/28 05:47:25;;;;;;;1.13;1.07;;;6.20;77.80;;;;;;6331145;22;20168;-83
2024/01/28 05:49:53;;;;;;;5.77;3.07;;;6.20;77.90;;;;;;6330400;22;20179;-83
2024/01/28 05:52:38;;;;;;;1.40;1.30;;;6.20;77.80;;;;;;6332351;22;20198;-82
2024/01/28 05:57:49;;;;;;;4.40;3.23;;;6.30;77.60;;;;;;6331298;22;20176;-86
2024/01/28 06:00:18;;;;;;;2.30;2.07;;;6.30;77.50;;;;;;6333490;22;20175;-87
2024/01/28 06:03:00;;;;;;;2.27;2.17;;;6.30;77.50;;;;;;6333004;22;20198;-87
2024/01/28 06:05:29;;;;;;;3.10;2.67;;;6.30;77.50;;;;;;6331623;22;20381;-81
2024/01/28 06:07:59;;;;;;;4.00;2.93;;;6.20;77.50;;;;;;6333163;22;20171;-81
2024/01/28 06:10:28;;;;;;;1.70;1.60;;;6.30;77.60;;;;;;6332981;22;20264;-83
2024/01/28 06:12:57;;;;;;;2.33;2.13;;;6.20;77.60;;;;;;6331814;22;20201;-86
2024/01/28 06:15:25;;;;;;;1.80;1.70;;;6.20;78.40;;;;;;6323946;22;20173;-84
2024/01/28 06:17:54;;;;;;;4.83;2.53;;;6.20;77.60;;;;;;6331686;22;20243;-85
2024/01/28 06:20:23;;;;;;;4.20;2.27;;;6.20;77.60;;;;;;6331353;22;20372;-85
2024/01/28 06:22:52;;;;;;;3.87;2.27;;;6.30;77.70;;;;;;6333293;22;20170;-84
2024/01/28 06:25:22;;;;;;;2.03;1.93;;;6.20;77.70;;;;;;6329344;22;20196;-86
2024/01/28 06:30:48;;;;;;;2.53;2.33;;;6.20;77.70;;;;;;6328815;22;20505;-84
2024/01/28 06:33:44;;;;;;;3.70;2.17;;;6.20;77.80;;;;;;6332401;22;20253;-83
2024/01/28 06:36:21;;;;;;;5.27;2.77;;;6.20;77.80;;;;;;6332186;22;20174;-84
2024/01/28 06:41:48;;;;;;;3.17;1.83;;;6.00;78.40;;;;;;6334231;22;20166;-86
2024/01/28 06:47:26;;;;;;;2.77;2.00;;;6.00;78.30;;;;;;6331022;22;20194;-85
2024/01/28 06:50:10;;;;;;;3.30;2.17;;;6.00;78.10;;;;;;6329028;22;20173;-84
2024/01/28 06:52:39;;;;;;;1.83;1.73;;;6.00;78.10;;;;;;6333012;22;20194;-88
2024/01/28 06:58:10;;;;;;;1.00;1.00;;;5.90;77.90;;;;;;6334841;22;20171;-87
2024/01/28 07:03:21;;;;;;;4.53;2.50;;;5.90;78.00;;;;;;6331339;22;20236;-86
2024/01/28 07:06:07;;;;;;;1.33;1.23;;;5.90;78.00;;;;;;6337811;22;20175;-85
2024/01/28 07:08:36;;;;;;;2.63;1.70;;;5.90;78.10;;;;;;6340145;22;20166;-82
2024/01/28 07:11:05;;;;;;;2.30;1.67;;;6.00;78.20;;;;;;6334694;22;20171;-85
2024/01/28 07:13:37;;;;;;;12.53;3.67;;;6.00;78.30;;;;;;6329686;22;20498;-84
2024/01/28 07:16:09;;;;;;;1.93;1.33;;;6.00;78.40;;;;;;6334436;22;20170;-84
2024/01/28 07:18:38;;;;;;;3.17;1.80;;;6.10;78.50;;;;;;6335220;22;20210;-85
2024/01/28 07:21:08;;;;;;;5.07;2.00;;;6.20;78.70;;;;;;6334859;22;20239;-82
2024/01/28 07:23:36;;;;;;;4.07;2.73;;;6.20;78.60;;;;;;6331288;22;20543;-82
2024/01/28 07:26:05;;;;;;;1.53;1.43;;;6.20;78.60;;;;;;6336524;22;20167;-83
2024/01/28 07:28:49;;;;;;;0.70;0.70;;;6.30;78.60;;;;;;6329033;22;20170;-82
2024/01/28 07:31:31;;;;;;;2.33;2.13;;;6.30;79.20;;;;;;6329356;22;20499;-83
2024/01/28 07:34:17;;;;;;;3.67;2.67;;;6.30;78.30;;;;;;6326861;22;20178;-83
2024/01/28 07:36:47;;;;;;;2.40;2.27;;;6.30;78.40;;;;;;6331111;22;20191;-84
2024/01/28 07:42:26;;;;;;;3.33;2.70;;;6.40;78.60;;;;;;6334998;22;20171;-84
2024/01/28 07:45:24;;;;;;;2.67;2.07;;;6.40;78.60;;;;;;6330283;22;20177;-81
2024/01/28 07:47:54;;;;;;;2.40;1.77;;;6.50;78.30;;;;;;6331241;22;20378;-81
2024/01/28 07:50:23;;;;;;;10.17;1.77;;;6.50;77.70;;;;;;6329752;22;20248;-82
2024/01/28 07:52:52;;;;;;;1.53;1.43;;;6.60;77.90;;;;;;6333761;22;20206;-81
2024/01/28 07:55:20;;;;;;;2.10;1.90;;;6.70;77.90;;;;;;6331350;22;20653;-82
2024/01/28 07:57:49;;;;;;;2.53;1.83;;;6.70;77.30;;;;;;6334908;22;20172;-82
2024/01/28 08:00:18;;;;;;;4.00;1.70;;;6.70;76.40;;;;;;6332129;22;20175;-84
2024/01/28 08:03:02;;;;;;;6.17;2.90;;;6.80;76.20;;;;;;6330277;22;20192;-81
2024/01/28 08:05:31;;;;;;;5.43;3.60;;;6.80;76.10;;;;;;6328750;22;20181;-82
2024/01/28 08:10:55;;;;;;;2.43;2.10;;;6.80;75.90;;;;;;6331195;22;20168;-82
2024/01/28 08:19:32;;;;;;;4.67;2.20;;;7.10;76.30;;;;;;6331056;22;20175;-82
2024/01/28 08:22:31;;;;;;;3.33;3.07;;;7.20;75.40;;;;;;6330533;22;20496;-83
2024/01/28 08:25:15;;;;;;;0.73;0.73;;;7.30;75.90;;;;;;6329021;22;20485;-85
2024/01/28 08:27:45;;;;;;;1.23;1.13;;;7.50;76.10;;;;;;6333340;22;20514;-82
2024/01/28 08:35:52;;;;;;;2.73;1.70;;;7.60;74.10;;;;;;6337338;22;20166;-87
2024/01/28 08:38:21;;;;;;;3.75;3.40;;;7.50;73.80;;;;;;6335802;22;20396;-87
2024/01/28 08:40:51;;;;;;;3.30;3.03;;;7.60;75.30;;;;;;6345321;22;20171;-88
2024/01/28 08:43:19;;;;;;;4.90;2.27;;;7.60;74.60;;;;;;6337243;22;20554;-85
2024/01/28 08:45:48;;;;;;;1.93;1.83;;;7.60;74.70;;;;;;6331238;22;20164;-85
2024/01/28 08:48:17;;;;;;;2.93;2.63;;;7.60;74.60;;;;;;6333967;22;20176;-85
2024/01/28 08:50:45;;;;;;;1.87;1.77;;;7.70;75.00;;;;;;6331069;22;20187;-86
2024/01/28 08:53:14;;;;;;;3.13;2.63;;;7.70;75.00;;;;;;6332466;22;20478;-86
2024/01/28 08:55:43;;;;;;;2.33;1.77;;;7.80;74.90;;;;;;6334119;22;20172;-85
2024/01/28 08:58:12;;;;;;;2.60;2.40;;;7.90;75.20;;;;;;6333218;22;20165;-86
2024/01/28 09:00:41;;;;;;;0.80;0.80;;;7.90;75.10;;;;;;6336370;22;20204;-85
2024/01/28 09:03:10;;;;;;;1.60;1.50;;;7.90;75.00;;;;;;6328617;22;20464;-88
2024/01/28 09:05:38;;;;;;;3.70;2.40;;;8.00;75.50;;;;;;6331772;22;20180;-87
2024/01/28 09:08:07;;;;;;;2.07;1.87;;;8.10;75.10;;;;;;6335150;22;20217;-87
2024/01/28 09:10:36;;;;;;;2.27;1.73;;;8.20;75.20;;;;;;6334453;22;20168;-86
2024/01/28 09:13:05;;;;;;;3.63;2.13;;;8.30;74.20;;;;;;6332142;22;20622;-88
2024/01/28 09:18:46;;;;;;;1.40;1.30;;;8.30;73.10;;;;;;6331434;22;20173;-87
2024/01/28 09:24:24;;;;;;;5.30;2.00;;;8.50;72.70;;;;;;6327693;22;20296;-85
2024/01/28 09:38:01;;;;;;;2.70;2.50;;;8.70;73.00;;;;;;6333325;22;20171;-86
2024/01/28 09:43:29;;;;;;;1.43;1.33;;;8.80;73.50;;;;;;6328729;22;20460;-86
2024/01/28 09:45:58;;;;;;;2.90;2.50;;;8.80;73.30;;;;;;6332553;22;20174;-84
2024/01/28 09:48:28;;;;;;;2.90;1.43;;;8.90;73.20;;;;;;6348744;22;20169;-91
2024/01/28 09:50:58;;;;;;;2.00;1.90;;;8.90;73.30;;;;;;6348933;22;20175;-85
2024/01/28 09:53:27;;;;;;;3.93;2.50;;;9.00;73.30;;;;;;6333726;22;20188;-85
2024/01/28 09:55:56;;;;;;;1.27;1.17;;;9.00;73.20;;;;;;6333560;22;20171;-86
2024/01/28 09:58:25;;;;;;;5.30;2.93;;;9.10;73.30;;;;;;6335097;22;20205;-87
2024/01/28 10:00:54;;;;;;;1.67;1.57;;;9.10;73.10;;;;;;6337666;22;20647;-86
2024/01/28 10:03:23;;;;;;;3.40;2.13;;;9.20;72.90;;;;;;6337045;22;20195;-85
2024/01/28 10:05:52;;;;;;;2.37;2.17;;;9.30;73.10;;;;;;6337183;22;20168;-86
2024/01/28 10:08:22;;;;;;;2.20;1.30;;;9.40;73.20;;;;;;6337346;22;20164;-87
2024/01/28 10:10:54;;;;;;;1.37;1.27;;;9.40;73.10;;;;;;6335160;22;20171;-84
2024/01/28 10:13:22;;;;;;;3.83;2.07;;;9.50;73.30;;;;;;6330352;22;20279;-86
2024/01/28 10:15:57;;;;;;;2.13;1.77;;;9.60;73.30;;;;;;6334450;22;20261;-85
2024/01/28 10:18:26;;;;;;;1.70;1.60;;;9.60;73.30;;;;;;6333862;22;20171;-87
2024/01/28 10:20:55;;;;;;;2.87;2.10;;;9.70;73.20;;;;;;6335264;22;20733;-87
2024/01/28 10:23:25;;;;;;;2.47;2.07;;;9.80;73.20;;;;;;6331754;22;20167;-90
2024/01/28 10:25:58;;;;;;;5.00;3.00;;;9.80;73.00;;;;;;6339010;22;20536;-86
2024/01/28 10:28:29;;;;;;;6.23;3.97;;;9.90;72.20;;;;;;6333906;22;20168;-87
2024/01/28 10:30:57;;;;;;;2.40;2.07;;;9.90;72.10;;;;;;6331396;22;20172;-87
2024/01/28 10:33:26;;;;;;;1.93;1.73;;;10.00;72.00;;;;;;6329963;22;20196;-86
2024/01/28 10:35:55;;;;;;;3.47;3.20;;;10.00;70.70;;;;;;6334530;22;20240;-87
2024/01/28 10:38:26;;;;;;;6.63;3.43;;;10.00;69.40;;;;;;6333392;22;20169;-86
2024/01/28 10:40:55;;;;;;;4.97;2.07;;;10.00;68.90;;;;;;6331050;22;20638;-89
2024/01/28 10:43:28;;;;;;;3.97;3.33;;;10.10;69.50;;;;;;6337415;22;20636;-86
2024/01/28 10:45:57;;;;;;;5.93;3.13;;;10.10;69.70;;;;;;6333795;22;20178;-86
2024/01/28 10:48:25;;;;;;;3.23;2.93;;;10.20;69.60;;;;;;6333234;22;20165;-85
2024/01/28 10:50:56;;;;;;;2.63;2.40;;;10.20;68.90;;;;;;6336133;22;20179;-90
2024/01/28 10:53:27;;;;;;;6.97;3.77;;;10.20;68.10;;;;;;6335512;22;20224;-86
2024/01/28 10:55:56;;;;;;;3.67;2.97;;;10.30;68.70;;;;;;6333315;22;20199;-86
2024/01/28 10:58:25;;;;;;;3.10;2.60;;;10.30;68.00;;;;;;6335875;22;20175;-85
2024/01/28 11:00:53;;;;;;;8.90;4.23;;;10.40;67.30;;;;;;6334935;22;20172;-85
2024/01/28 11:03:22;;;;;;;3.37;2.80;;;10.40;67.20;;;;;;6334011;22;20168;-86
2024/01/28 11:05:55;;;;;;;8.13;3.13;;;10.40;67.00;;;;;;6335884;22;20220;-90
2024/01/28 11:08:28;;;;;;;3.20;2.80;;;10.50;67.50;;;;;;6344243;22;20397;-86
2024/01/28 11:10:57;;;;;;;5.00;2.20;;;10.60;67.80;;;;;;6331599;22;20247;-86
2024/01/28 11:13:26;;;;;;;2.93;2.47;;;10.70;66.90;;;;;;6333167;22;20542;-85
2024/01/28 11:15:55;;;;;;;4.63;2.73;;;10.70;67.30;;;;;;6332396;22;20616;-86
2024/01/28 11:18:29;;;;;;;3.87;2.47;;;10.80;67.40;;;;;;6332771;22;20717;-86
2024/01/28 11:20:58;;;;;;;3.33;3.03;;;10.90;67.20;;;;;;6333169;22;20209;-85
2024/01/28 11:23:31;;;;;;;5.60;3.43;;;10.90;67.20;;;;;;6330056;22;20702;-87
2024/01/28 11:26:02;;;;;;;2.97;2.67;;;10.90;66.70;;;;;;6336795;22;20180;-86
2024/01/28 11:28:31;;;;;;;6.57;3.00;;;11.00;67.10;;;;;;6336289;22;20168;-86
2024/01/28 11:30:59;;;;;;;4.67;2.87;;;11.00;66.20;;;;;;6334530;22;20164;-85
2024/01/28 11:33:35;;;;;;;2.00;1.70;;;11.10;66.30;;;;;;6331787;22;20269;-85
2024/01/28 11:36:06;;;;;;;3.13;2.67;;;11.10;66.00;;;;;;6336252;22;20652;-87
2024/01/28 11:38:42;;;;;;;3.60;2.83;;;11.10;66.20;;;;;;6335231;22;20508;-86
2024/01/28 11:41:14;;;;;;;1.90;1.80;;;11.10;66.10;;;;;;6335849;22;20186;-85
2024/01/28 11:43:43;;;;;;;1.77;1.67;;;11.10;66.70;;;;;;6335179;22;20180;-87
2024/01/28 11:46:13;;;;;;;9.13;3.67;;;11.20;66.50;;;;;;6333915;22;20224;-86
2024/01/28 11:48:41;;;;;;;2.50;1.90;;;11.30;66.50;;;;;;6336154;22;20600;-84
2024/01/28 11:51:10;;;;;;;3.50;2.20;;;11.30;66.10;;;;;;6333733;22;20171;-85
2024/01/28 11:53:43;;;;;;;1.97;1.77;;;11.30;65.90;;;;;;6331759;22;20554;-85
2024/01/28 11:56:12;;;;;;;5.20;3.33;;;11.30;65.90;;;;;;6334597;22;20247;-87
2024/01/28 11:58:41;;;;;;;2.43;2.23;;;11.40;66.30;;;;;;6335676;22;20179;-87
2024/01/28 12:01:10;;;;;;;4.53;2.80;;;11.40;66.10;;;;;;6332879;22;20198;-88
2024/01/28 12:06:23;;;;;;;4.70;2.43;;;11.40;65.20;;;;;;6331492;22;20197;-89
2024/01/28 12:14:47;;;;;;;2.50;2.17;;;11.20;65.00;;;;;;6327131;22;20204;-87
2024/01/28 12:17:16;;;;;;;3.23;2.50;;;11.20;65.60;;;;;;6334255;22;20183;-86
2024/01/28 12:19:45;;;;;;;6.83;2.90;;;11.20;66.20;;;;;;6330320;22;20644;-84
2024/01/28 12:22:13;;;;;;;4.77;1.40;;;11.10;65.50;;;;;;6334371;22;20181;-88
2024/01/28 12:24:47;;;;;;;2.20;1.57;;;11.10;66.00;;;;;;6332649;22;20171;-88
2024/01/28 12:27:17;;;;;;;1.43;1.33;;;11.10;66.30;;;;;;6337696;22;20243;-85
2024/01/28 12:29:46;;;;;;;4.93;2.70;;;11.20;66.70;;;;;;6339589;22;20170;-84
2024/01/28 12:32:14;;;;;;;3.47;2.10;;;11.20;66.80;;;;;;6349416;22;20707;-84
2024/01/28 12:34:43;;;;;;;3.57;3.23;;;11.20;66.90;;;;;;6343589;22;20738;-88
2024/01/28 12:37:12;;;;;;;3.53;3.23;;;11.20;66.60;;;;;;6333341;22;20509;-89
2024/01/28 12:39:40;;;;;;;2.33;1.60;;;11.20;66.60;;;;;;6334079;22;20191;-84
2024/01/28 12:42:10;;;;;;;4.00;3.60;;;11.20;65.90;;;;;;6331755;22;20164;-87
2024/01/28 12:44:39;;;;;;;7.20;4.53;;;11.20;66.10;;;;;;6333761;22;20221;-88
2024/01/28 12:52:53;;;;;;;5.83;5.13;;;11.20;68.40;;;;;;6337961;22;20168;-91
2024/01/28 12:55:21;;;;;;;5.00;3.23;;;11.20;68.80;;;;;;6331386;22;20279;-93
2024/01/28 12:57:51;;;;;;;4.00;3.70;;;11.20;69.50;;;;;;6335231;22;20164;-90
2024/01/28 13:00:20;;;;;;;3.90;3.43;;;11.10;70.20;;;;;;6333186;22;20161;-84
2024/01/28 13:03:03;;;;;;;7.70;4.93;;;11.10;70.40;;;;;;6328256;22;20536;-83
2024/01/28 13:05:31;;;;;;;5.60;2.37;;;11.00;70.20;;;;;;6325741;22;20175;-81
2024/01/28 13:08:00;;;;;;;3.17;1.83;;;11.00;70.00;;;;;;6329334;22;20168;-85
2024/01/28 13:10:29;;;;;;;2.63;2.33;;;10.90;70.20;;;;;;6331741;22;20190;-82
2024/01/28 13:12:59;;;;;;;6.57;2.60;;;10.90;70.40;;;;;;6332558;22;20180;-82
2024/01/28 13:15:27;;;;;;;2.13;1.93;;;10.90;70.50;;;;;;6327710;22;20282;-83
2024/01/28 13:17:56;;;;;;;2.27;1.80;;;10.90;70.60;;;;;;6333086;22;20168;-83
2024/01/28 13:20:24;;;;;;;2.50;2.13;;;10.80;70.70;;;;;;6331478;22;20463;-83
2024/01/28 13:22:53;;;;;;;4.47;2.27;;;10.80;70.90;;;;;;6328698;22;20179;-83
2024/01/28 13:25:23;;;;;;;1.83;1.70;;;10.70;70.90;;;;;;6331565;22;20169;-83
2024/01/28 13:27:51;;;;;;;1.73;1.63;;;10.70;70.90;;;;;;6333309;22;20481;-85
2024/01/28 13:30:21;;;;;;;4.53;2.60;;;10.60;71.00;;;;;;6329959;22;20164;-84
2024/01/28 13:32:50;;;;;;;3.60;3.23;;;10.60;71.10;;;;;;6332412;22;20497;-83
2024/01/28 13:35:19;;;;;;;2.00;1.80;;;10.50;71.30;;;;;;6328086;22;20621;-83
2024/01/28 13:37:48;;;;;;;1.30;1.23;;;10.50;71.30;;;;;;6333687;22;20172;-83
2024/01/28 13:40:16;;;;;;;1.27;1.20;;;10.50;71.30;;;;;;6332484;22;20180;-83
2024/01/28 13:42:44;;;;;;;1.43;1.23;;;10.50;71.30;;;;;;6332036;22;20169;-83
2024/01/28 13:45:13;;;;;;;7.23;1.47;;;10.40;71.40;;;;;;6327202;22;20172;-83
2024/01/28 13:47:44;;;;;;;1.07;1.00;;;10.40;71.40;;;;;;6333998;22;20633;-82
2024/01/28 13:50:13;;;;;;;6.13;1.07;;;10.40;71.40;;;;;;6328428;22;20172;-83
2024/01/28 13:52:41;;;;;;;2.27;2.10;;;10.40;71.60;;;;;;6332906;22;20164;-83
2024/01/28 13:55:10;;;;;;;1.60;1.50;;;10.40;71.80;;;;;;6329042;22;20584;-83
2024/01/28 13:57:38;;;;;;;4.63;2.67;;;10.30;71.90;;;;;;6333014;22;20196;-89
2024/01/28 14:00:09;;;;;;;3.00;2.60;;;10.30;71.80;;;;;;6305447;22;20169;-89
2024/01/28 14:02:41;;;;;;;3.63;3.33;;;10.30;71.90;;;;;;6333511;22;20205;-84
2024/01/28 14:05:12;;;;;;;16.13;3.57;;;10.30;72.00;;;;;;6327237;22;20478;-85
2024/01/28 14:07:42;;;;;;;4.73;3.07;;;10.30;72.00;;;;;;6332655;22;20165;-83
2024/01/28 14:10:11;;;;;;;3.70;2.33;;;10.20;72.30;;;;;;6329610;22;20698;-84
2024/01/28 14:12:39;;;;;;;2.40;1.97;;;10.20;72.30;;;;;;6333814;22;20248;-84
2024/01/28 14:15:09;;;;;;;1.70;1.53;;;10.20;72.50;;;;;;6329006;22;20711;-84
2024/01/28 14:17:38;;;;;;;4.10;3.40;;;10.20;72.50;;;;;;6329685;22;20173;-84
2024/01/28 14:20:08;;;;;;;2.07;1.97;;;10.10;72.60;;;;;;6330154;22;20561;-83
2024/01/28 14:22:38;;;;;;;2.47;1.70;;;10.10;72.60;;;;;;6333006;22;20164;-83
2024/01/28 14:25:08;;;;;;;8.53;3.00;;;10.10;72.70;;;;;;6328304;22;20632;-83